createdAt,value
2022-12-09T00:01:24.194Z,13.48
2022-12-09T00:03:52.443Z,18.33
2022-12-09T00:06:22.538Z,15.02
2022-12-09T00:08:51.095Z,11.60
2022-12-09T00:11:21.944Z,15.75
2022-12-09T00:13:50.933Z,13.68
2022-12-09T00:16:19.773Z,14.77
2022-12-09T00:18:48.338Z,15.90
2022-12-09T00:21:21.803Z,12.68
2022-12-09T00:23:51.561Z,9.60
2022-12-09T00:26:22.929Z,13.43
2022-12-09T00:28:52.024Z,9.77
2022-12-09T00:31:24.527Z,11.27
2022-12-09T00:33:54.414Z,12.80
2022-12-09T00:36:24.374Z,14.57
2022-12-09T00:38:54.227Z,12.02
2022-12-09T00:41:24.110Z,15.18
2022-12-09T00:43:52.667Z,10.25
2022-12-09T00:46:20.804Z,8.55
2022-12-09T00:48:49.391Z,12.27
2022-12-09T00:51:20.387Z,9.60
2022-12-09T00:53:50.429Z,10.95
2022-12-09T00:56:18.776Z,14.85
2022-12-09T00:58:48.645Z,11.20
2022-12-09T01:01:16.955Z,11.02
2022-12-09T01:03:45.759Z,9.68
2022-12-09T01:06:18.305Z,12.70
2022-12-09T01:08:47.701Z,17.02
2022-12-09T01:11:19.067Z,13.95
2022-12-09T01:13:49.064Z,14.55
2022-12-09T01:16:20.673Z,13.18
2022-12-09T01:18:50.207Z,16.58
2022-12-09T01:21:19.371Z,13.70
2022-12-09T01:23:48.051Z,14.52
2022-12-09T01:26:16.085Z,15.10
2022-12-09T01:28:44.571Z,12.23
2022-12-09T01:31:20.114Z,11.45
2022-12-09T01:33:49.227Z,13.68
2022-12-09T01:36:20.472Z,14.85
2022-12-09T01:38:50.061Z,14.48
2022-12-09T01:41:28.760Z,11.93
2022-12-09T01:44:11.773Z,17.90
2022-12-09T01:46:41.978Z,11.95
2022-12-09T01:49:13.174Z,14.07
2022-12-09T01:51:43.776Z,13.02
2022-12-09T01:54:16.102Z,12.65
2022-12-09T01:56:45.675Z,12.60
2022-12-09T01:59:16.076Z,17.70
2022-12-09T02:01:50.061Z,12.32
2022-12-09T02:04:18.773Z,14.18
2022-12-09T02:06:47.558Z,11.63
2022-12-09T02:09:18.811Z,11.27
2022-12-09T02:11:59.160Z,13.27
2022-12-09T02:14:34.675Z,8.43
2022-12-09T02:17:19.168Z,8.60
2022-12-09T02:20:01.480Z,8.27
2022-12-09T02:22:34.701Z,8.82
2022-12-09T02:25:13.535Z,8.85
2022-12-09T02:27:55.166Z,6.82
2022-12-09T02:30:25.784Z,10.50
2022-12-09T02:33:25.144Z,10.48
2022-12-09T02:35:58.587Z,10.65
2022-12-09T02:38:30.128Z,10.68
2022-12-09T02:41:03.364Z,13.00
2022-12-09T02:43:36.749Z,13.10
2022-12-09T02:46:07.855Z,9.98
2022-12-09T02:48:40.549Z,11.40
2022-12-09T02:51:15.291Z,9.85
2022-12-09T02:53:47.786Z,9.48
2022-12-09T02:56:16.950Z,8.35
2022-12-09T02:58:45.998Z,7.97
2022-12-09T03:01:23.962Z,10.10
2022-12-09T03:03:55.875Z,9.88
2022-12-09T03:06:32.112Z,8.40
2022-12-09T03:09:11.102Z,9.23
2022-12-09T03:11:40.948Z,8.35
2022-12-09T03:14:13.272Z,11.90
2022-12-09T03:16:46.080Z,7.25
2022-12-09T03:19:33.141Z,8.73
2022-12-09T03:22:07.726Z,8.05
2022-12-09T03:24:40.695Z,6.43
2022-12-09T03:27:13.381Z,6.40
2022-12-09T03:29:44.543Z,8.40
2022-12-09T03:32:14.010Z,6.18
2022-12-09T03:34:46.015Z,6.65
2022-12-09T03:37:18.220Z,6.82
2022-12-09T03:39:47.665Z,6.57
2022-12-09T03:42:19.845Z,9.13
2022-12-09T03:44:53.109Z,6.97
2022-12-09T03:47:22.239Z,6.70
2022-12-09T03:49:51.420Z,9.23
2022-12-09T03:52:24.089Z,7.43
2022-12-09T03:54:58.894Z,11.15
2022-12-09T03:57:27.832Z,10.52
2022-12-09T04:00:00.770Z,8.07
2022-12-09T04:02:30.237Z,9.95
2022-12-09T04:04:58.737Z,12.25
2022-12-09T04:07:28.502Z,10.80
2022-12-09T04:09:57.135Z,13.90
2022-12-09T04:12:25.977Z,11.88
2022-12-09T04:14:58.101Z,10.68
2022-12-09T04:17:26.545Z,13.02
2022-12-09T04:19:54.995Z,9.93
2022-12-09T04:22:23.530Z,12.73
2022-12-09T04:24:53.158Z,13.50
2022-12-09T04:27:21.683Z,12.40
2022-12-09T04:29:49.932Z,9.55
2022-12-09T04:32:18.409Z,12.25
2022-12-09T04:34:46.733Z,10.88
2022-12-09T04:37:16.724Z,12.25
2022-12-09T04:39:44.808Z,14.75
2022-12-09T04:42:14.613Z,13.00
2022-12-09T04:44:42.959Z,12.43
2022-12-09T04:47:12.782Z,11.27
2022-12-09T04:49:41.456Z,9.05
2022-12-09T04:52:09.571Z,12.57
2022-12-09T04:54:39.793Z,13.77
2022-12-09T04:57:08.510Z,9.07
2022-12-09T04:59:37.942Z,10.25
2022-12-09T05:02:06.455Z,12.82
2022-12-09T05:04:35.238Z,9.65
2022-12-09T05:07:03.951Z,13.25
2022-12-09T05:09:32.397Z,11.35
2022-12-09T05:12:00.536Z,14.20
2022-12-09T05:14:28.742Z,8.63
2022-12-09T05:17:08.122Z,10.13
2022-12-09T05:19:36.737Z,10.50
2022-12-09T05:22:05.307Z,9.73
2022-12-09T05:24:33.854Z,10.93
2022-12-09T05:27:02.156Z,10.23
2022-12-09T05:29:30.542Z,10.73
2022-12-09T05:31:59.046Z,9.88
2022-12-09T05:34:29.928Z,13.35
2022-12-09T05:36:58.417Z,11.88
2022-12-09T05:39:28.011Z,12.05
2022-12-09T05:41:56.523Z,8.77
2022-12-09T05:44:24.957Z,11.27
2022-12-09T05:46:53.584Z,8.32
2022-12-09T05:49:22.118Z,10.25
2022-12-09T05:51:52.078Z,12.40
2022-12-09T05:54:20.318Z,9.32
2022-12-09T05:56:49.122Z,9.10
2022-12-09T05:59:17.698Z,10.98
2022-12-09T06:01:45.871Z,10.13
2022-12-09T06:04:14.653Z,12.80
2022-12-09T06:06:43.252Z,11.65
2022-12-09T06:09:13.490Z,10.73
2022-12-09T06:11:42.399Z,11.23
2022-12-09T06:14:12.689Z,10.68
2022-12-09T06:16:41.548Z,11.00
2022-12-09T06:19:11.458Z,15.13
2022-12-09T06:21:41.053Z,16.02
2022-12-09T06:24:10.533Z,10.98
2022-12-09T06:26:40.566Z,14.15
2022-12-09T06:29:09.285Z,10.27
2022-12-09T06:31:37.906Z,9.38
2022-12-09T06:34:06.854Z,11.18
2022-12-09T06:36:35.058Z,12.02
2022-12-09T06:39:10.064Z,14.13
2022-12-09T06:41:42.129Z,13.45
2022-12-09T06:44:14.780Z,13.98
2022-12-09T06:46:51.168Z,12.38
2022-12-09T06:49:19.973Z,17.48
2022-12-09T06:52:26.464Z,14.25
2022-12-09T06:54:54.953Z,17.70
2022-12-09T06:57:25.042Z,14.25
2022-12-09T06:59:53.350Z,11.68
2022-12-09T07:02:22.684Z,12.02
2022-12-09T07:04:54.551Z,15.13
2022-12-09T07:07:23.349Z,13.23
2022-12-09T07:09:52.027Z,11.40
2022-12-09T07:12:20.721Z,19.52
2022-12-09T07:14:50.917Z,14.38
2022-12-09T07:17:21.549Z,12.80
2022-12-09T07:19:50.193Z,15.05
2022-12-09T07:22:18.606Z,14.45
2022-12-09T07:24:47.521Z,15.75
2022-12-09T07:27:19.590Z,16.63
2022-12-09T07:29:48.702Z,15.75
2022-12-09T07:32:18.521Z,16.75
2022-12-09T07:34:47.160Z,14.40
2022-12-09T07:37:15.716Z,12.30
2022-12-09T07:39:44.249Z,13.82
2022-12-09T07:42:12.629Z,15.15
2022-12-09T07:44:51.719Z,18.73
2022-12-09T07:47:21.381Z,19.52
2022-12-09T07:49:50.158Z,20.25
2022-12-09T07:52:19.787Z,15.07
2022-12-09T07:54:48.433Z,14.77
2022-12-09T07:57:16.564Z,18.30
2022-12-09T07:59:45.284Z,13.85
2022-12-09T08:02:13.612Z,19.20
2022-12-09T08:04:43.200Z,17.38
2022-12-09T08:07:13.587Z,16.55
2022-12-09T08:09:42.310Z,19.23
2022-12-09T08:12:12.740Z,16.60
2022-12-09T08:14:41.532Z,23.80
2022-12-09T08:17:09.883Z,20.55
2022-12-09T08:19:39.479Z,22.73
2022-12-09T08:22:09.395Z,24.92
2022-12-09T08:24:38.345Z,21.42
2022-12-09T08:27:06.833Z,20.75
2022-12-09T08:29:35.783Z,29.42
2022-12-09T08:32:04.774Z,23.55
2022-12-09T08:34:33.317Z,23.65
2022-12-09T08:37:02.541Z,20.38
2022-12-09T08:39:33.706Z,18.75
2022-12-09T08:42:02.320Z,17.05
2022-12-09T08:45:00.187Z,18.73
2022-12-09T08:47:39.738Z,21.67
2022-12-09T08:53:22.787Z,20.17
2022-12-09T08:55:52.707Z,20.15
2022-12-09T08:58:21.270Z,20.50
2022-12-09T09:00:49.660Z,19.45
2022-12-09T09:03:18.465Z,16.70
2022-12-09T09:05:47.618Z,15.85
2022-12-09T09:08:19.071Z,16.00
2022-12-09T09:10:47.729Z,18.45
2022-12-09T09:13:17.658Z,15.45
2022-12-09T09:15:46.431Z,19.08
2022-12-09T09:18:16.004Z,21.40
2022-12-09T09:20:46.289Z,19.33
2022-12-09T09:23:15.723Z,19.42
2022-12-09T09:25:46.970Z,24.30
2022-12-09T09:28:15.579Z,22.65
2022-12-09T09:30:45.925Z,19.17
2022-12-09T09:33:17.919Z,21.55
2022-12-09T09:35:46.850Z,23.25
2022-12-09T09:38:15.771Z,21.20
2022-12-09T09:40:44.456Z,16.80
2022-12-09T09:43:17.607Z,16.67
2022-12-09T09:45:48.093Z,16.13
2022-12-09T09:48:19.169Z,17.67
2022-12-09T09:50:54.529Z,15.32
2022-12-09T09:53:26.725Z,14.65
2022-12-09T09:56:00.032Z,17.63
2022-12-09T09:58:37.548Z,16.63
2022-12-09T10:01:10.701Z,19.15
2022-12-09T10:03:52.556Z,15.65
2022-12-09T10:06:37.522Z,14.60
2022-12-09T10:09:15.174Z,18.33
2022-12-09T10:11:57.280Z,18.13
2022-12-09T10:14:38.162Z,17.35
2022-12-09T10:17:19.917Z,18.63
2022-12-09T10:19:54.384Z,18.55
2022-12-09T10:22:25.814Z,17.88
2022-12-09T10:24:57.360Z,16.10
2022-12-09T10:27:31.565Z,19.10
2022-12-09T10:30:03.691Z,16.85
2022-12-09T10:32:34.988Z,17.65
2022-12-09T10:35:18.888Z,16.38
2022-12-09T10:37:58.940Z,15.48
2022-12-09T10:40:36.947Z,15.85
2022-12-09T10:43:39.147Z,16.58
2022-12-09T10:46:19.674Z,17.42
2022-12-09T10:48:58.038Z,16.08
2022-12-09T10:51:28.926Z,15.25
2022-12-09T10:54:00.411Z,16.13
2022-12-09T10:56:31.472Z,19.15
2022-12-09T10:59:11.455Z,18.00
2022-12-09T11:01:50.674Z,19.65
2022-12-09T11:04:25.155Z,16.35
2022-12-09T11:06:59.348Z,17.05
2022-12-09T11:09:32.237Z,14.15
2022-12-09T11:12:02.242Z,16.73
2022-12-09T11:14:35.813Z,16.65
2022-12-09T11:17:15.606Z,17.77
2022-12-09T11:19:48.932Z,20.13
2022-12-09T11:22:39.611Z,18.70
2022-12-09T11:25:28.089Z,18.17
2022-12-09T11:27:59.824Z,14.27
2022-12-09T11:30:31.858Z,15.90
2022-12-09T11:33:03.884Z,20.27
2022-12-09T11:35:39.410Z,21.23
2022-12-09T11:38:22.629Z,20.17
2022-12-09T11:41:02.397Z,20.00
2022-12-09T11:43:35.102Z,19.60
2022-12-09T11:46:17.315Z,16.85
2022-12-09T11:48:50.766Z,22.60
2022-12-09T11:51:23.496Z,19.27
2022-12-09T11:54:01.681Z,24.00
2022-12-09T11:56:32.081Z,22.50
2022-12-09T11:59:04.430Z,22.67
2022-12-09T12:01:46.741Z,22.92
2022-12-09T12:04:17.947Z,18.92
2022-12-09T12:06:49.688Z,17.73
2022-12-09T12:09:25.043Z,21.55
2022-12-09T12:12:02.728Z,21.60
2022-12-09T12:14:32.105Z,22.27
2022-12-09T12:17:09.646Z,19.13
2022-12-09T12:19:41.005Z,21.50
2022-12-09T12:22:39.188Z,20.85
2022-12-09T12:25:24.535Z,22.88
2022-12-09T12:28:13.537Z,19.90
2022-12-09T12:30:51.233Z,19.10
2022-12-09T12:34:07.735Z,17.67
2022-12-09T12:36:34.957Z,22.90
2022-12-09T12:39:13.920Z,20.80
2022-12-09T12:41:51.677Z,21.15
2022-12-09T12:45:02.525Z,24.23
2022-12-09T12:47:46.388Z,17.60
2022-12-09T12:50:44.503Z,19.95
2022-12-09T12:53:28.078Z,17.67
2022-12-09T12:56:02.920Z,20.67
2022-12-09T12:58:41.969Z,23.70
2022-12-09T13:01:18.231Z,24.30
2022-12-09T13:03:58.337Z,23.42
2022-12-09T13:06:36.951Z,22.52
2022-12-09T13:09:12.521Z,22.30
2022-12-09T13:11:53.633Z,24.83
2022-12-09T13:14:31.996Z,25.13
2022-12-09T13:17:02.468Z,21.17
2022-12-09T13:19:40.894Z,22.90
2022-12-09T13:22:15.719Z,21.15
2022-12-09T13:24:55.429Z,27.42
2022-12-09T13:27:37.165Z,23.45
2022-12-09T13:30:17.975Z,23.42
2022-12-09T13:33:19.354Z,21.35
2022-12-09T13:35:56.223Z,22.50
2022-12-09T13:38:36.884Z,25.70
2022-12-09T13:41:52.413Z,22.83
2022-12-09T13:44:27.077Z,21.98
2022-12-09T13:46:56.327Z,20.92
2022-12-09T13:49:26.718Z,22.40
2022-12-09T13:51:57.335Z,21.88
2022-12-09T13:54:28.952Z,22.70
2022-12-09T13:57:14.646Z,22.77
2022-12-09T13:59:49.525Z,18.20
2022-12-09T14:02:40.657Z,21.48
2022-12-09T14:09:01.719Z,23.65
2022-12-09T14:11:54.594Z,21.80
2022-12-09T14:15:36.640Z,22.52
2022-12-09T14:18:21.745Z,22.02
2022-12-09T14:21:24.701Z,24.88
2022-12-09T14:24:33.132Z,24.27
2022-12-09T14:27:19.385Z,21.77
2022-12-09T14:29:55.225Z,20.48
2022-12-09T14:32:31.281Z,22.50
2022-12-09T14:35:23.753Z,26.50
2022-12-09T14:38:07.144Z,24.52
2022-12-09T14:40:58.337Z,23.25
2022-12-09T14:44:09.828Z,23.48
2022-12-09T14:46:46.584Z,24.95
2022-12-09T14:49:21.924Z,24.92
2022-12-09T14:51:56.835Z,24.08
2022-12-09T14:54:31.874Z,23.45
2022-12-09T14:57:03.452Z,25.40
2022-12-09T14:59:35.181Z,25.65
2022-12-09T15:02:21.201Z,28.85
2022-12-09T15:04:54.819Z,22.33
2022-12-09T15:07:28.610Z,24.70
2022-12-09T15:10:03.163Z,26.48
2022-12-09T15:12:36.798Z,24.00
2022-12-09T15:15:13.770Z,22.45
2022-12-09T15:17:46.597Z,25.92
2022-12-09T15:20:29.881Z,28.90
2022-12-09T15:23:00.325Z,26.42
2022-12-09T15:25:32.645Z,28.95
2022-12-09T15:28:06.356Z,24.95
2022-12-09T15:30:37.748Z,26.98
2022-12-09T15:33:15.864Z,23.63
2022-12-09T15:35:56.660Z,27.58
2022-12-09T15:38:34.664Z,26.70
2022-12-09T15:41:28.280Z,34.03
2022-12-09T15:44:02.796Z,26.23
2022-12-09T15:46:38.326Z,24.90
2022-12-09T15:49:12.829Z,23.88
2022-12-09T15:51:49.248Z,28.10
2022-12-09T15:54:24.379Z,25.80
2022-12-09T15:59:58.473Z,29.20
2022-12-09T16:02:33.311Z,22.42
2022-12-09T16:05:06.226Z,28.13
2022-12-09T16:07:40.540Z,25.10
2022-12-09T16:10:18.017Z,23.80
2022-12-09T16:12:47.995Z,24.13
2022-12-09T16:15:52.659Z,22.15
2022-12-09T16:18:28.370Z,29.67
2022-12-09T16:21:19.271Z,27.02
2022-12-09T16:23:53.108Z,29.70
2022-12-09T16:26:31.544Z,29.13
2022-12-09T16:29:04.263Z,27.40
2022-12-09T16:31:39.585Z,26.23
2022-12-09T16:34:21.396Z,29.25
2022-12-09T16:36:56.229Z,29.77
2022-12-09T16:39:47.804Z,26.33
2022-12-09T16:42:30.176Z,25.45
2022-12-09T16:45:24.243Z,29.60
2022-12-09T16:47:56.766Z,32.40
2022-12-09T16:50:29.466Z,34.80
2022-12-09T16:53:03.791Z,34.65
2022-12-09T16:55:34.251Z,30.45
2022-12-09T16:58:02.512Z,27.98
2022-12-09T17:00:31.173Z,29.73
2022-12-09T17:03:08.768Z,27.77
2022-12-09T17:05:36.996Z,26.77
2022-12-09T17:08:05.724Z,27.85
2022-12-09T17:10:35.224Z,26.30
2022-12-09T17:13:03.667Z,28.50
2022-12-09T17:15:31.760Z,24.77
2022-12-09T17:18:00.226Z,25.55
2022-12-09T17:20:28.301Z,30.15
2022-12-09T17:22:56.413Z,28.75
2022-12-09T17:25:24.834Z,28.05
2022-12-09T17:27:55.486Z,33.58
2022-12-09T17:30:24.215Z,31.30
2022-12-09T17:32:52.768Z,32.60
2022-12-09T17:35:22.597Z,36.70
2022-12-09T17:37:51.763Z,34.35
2022-12-09T17:40:21.347Z,36.05
2022-12-09T17:42:50.101Z,35.95
2022-12-09T17:45:21.144Z,40.00
2022-12-09T17:47:50.531Z,32.38
2022-12-09T17:50:19.544Z,35.20
2022-12-09T17:52:48.615Z,31.58
2022-12-09T17:55:21.545Z,33.85
2022-12-09T17:57:55.151Z,29.35
2022-12-09T18:00:31.274Z,30.85
2022-12-09T18:03:04.435Z,32.92
2022-12-09T18:05:41.302Z,31.15
2022-12-09T18:08:13.301Z,31.77
2022-12-09T18:10:44.701Z,29.52
2022-12-09T18:13:16.648Z,29.40
2022-12-09T18:15:52.606Z,30.02
2022-12-09T18:18:24.933Z,35.35
2022-12-09T18:20:54.590Z,29.10
2022-12-09T18:23:23.667Z,30.63
2022-12-09T18:25:52.780Z,34.13
2022-12-09T18:28:21.747Z,29.17
2022-12-09T18:30:53.108Z,34.17
2022-12-09T18:33:22.741Z,34.90
2022-12-09T18:35:52.490Z,29.17
2022-12-09T18:38:21.660Z,35.88
2022-12-09T18:41:04.956Z,30.77
2022-12-09T18:43:37.992Z,37.78
2022-12-09T18:46:09.883Z,34.00
2022-12-09T18:48:39.644Z,48.38
2022-12-09T18:51:17.737Z,40.03
2022-12-09T18:53:54.154Z,32.35
2022-12-09T18:56:30.482Z,33.05
2022-12-09T18:59:07.511Z,39.35
2022-12-09T19:01:51.616Z,36.22
2022-12-09T19:04:28.929Z,32.60
2022-12-09T19:07:07.761Z,33.58
2022-12-09T19:09:37.919Z,37.97
2022-12-09T19:12:44.776Z,35.88
2022-12-09T19:14:58.237Z,47.03
2022-12-09T19:17:27.963Z,43.67
2022-12-09T19:19:56.715Z,33.72
2022-12-09T19:22:29.216Z,37.70
2022-12-09T19:25:00.077Z,31.17
2022-12-09T19:27:34.413Z,30.67
2022-12-09T19:30:10.415Z,34.70
2022-12-09T19:32:57.473Z,38.83
2022-12-09T19:35:25.850Z,36.95
2022-12-09T19:37:59.560Z,35.53
2022-12-09T19:40:35.101Z,36.40
2022-12-09T19:43:08.084Z,37.38
2022-12-09T19:45:45.463Z,38.67
2022-12-09T19:48:22.307Z,38.85
2022-12-09T19:50:58.940Z,37.30
2022-12-09T19:53:45.556Z,41.55
2022-12-09T19:56:22.087Z,39.88
2022-12-09T19:58:58.805Z,33.65
2022-12-09T20:01:31.901Z,40.72
2022-12-09T20:04:39.531Z,36.08
2022-12-09T20:07:07.833Z,38.75
2022-12-09T20:09:40.267Z,38.55
2022-12-09T20:12:12.799Z,36.88
2022-12-09T20:14:42.308Z,31.50
2022-12-09T20:17:10.912Z,30.77
2022-12-09T20:19:45.179Z,35.92
2022-12-09T20:22:17.837Z,33.53
2022-12-09T20:25:04.036Z,32.78
2022-12-09T20:27:33.712Z,39.47
2022-12-09T20:30:02.930Z,33.58
2022-12-09T20:32:36.881Z,33.55
2022-12-09T20:35:10.646Z,35.63
2022-12-09T20:37:39.808Z,39.47
2022-12-09T20:40:16.076Z,39.05
2022-12-09T20:42:46.524Z,34.65
2022-12-09T20:45:19.538Z,39.20
2022-12-09T20:47:54.526Z,39.95
2022-12-09T20:50:38.246Z,40.65
2022-12-09T20:53:18.344Z,39.75
2022-12-09T20:55:57.791Z,34.22
2022-12-09T20:58:26.545Z,36.88
2022-12-09T21:00:54.922Z,33.55
2022-12-09T21:03:25.731Z,35.72
2022-12-09T21:06:06.969Z,36.88
2022-12-09T21:08:42.503Z,37.75
2022-12-09T21:11:19.657Z,50.10
2022-12-09T21:13:55.066Z,34.33
2022-12-09T21:16:27.255Z,39.40
2022-12-09T21:18:57.375Z,34.63
2022-12-09T21:21:43.532Z,34.97
2022-12-09T21:24:12.668Z,34.58
2022-12-09T21:26:41.848Z,37.17
2022-12-09T21:29:12.363Z,34.33
2022-12-09T21:31:42.394Z,32.13
2022-12-09T21:34:11.678Z,37.97
2022-12-09T21:36:43.565Z,34.22
2022-12-09T21:39:13.735Z,36.20
2022-12-09T21:41:42.639Z,33.20
2022-12-09T21:44:15.699Z,31.23
2022-12-09T21:46:44.877Z,35.50
2022-12-09T21:49:14.983Z,36.53
2022-12-09T21:51:45.125Z,38.40
2022-12-09T21:54:13.604Z,36.50
2022-12-09T21:56:41.931Z,38.35
2022-12-09T21:59:12.289Z,34.58
2022-12-09T22:01:41.946Z,33.25
2022-12-09T22:04:28.890Z,36.22
2022-12-09T22:07:01.061Z,35.60
2022-12-09T22:09:29.825Z,37.38
2022-12-09T22:11:57.862Z,33.92
2022-12-09T22:14:26.038Z,35.47
2022-12-09T22:16:54.142Z,37.75
2022-12-09T22:19:22.383Z,35.17
2022-12-09T22:21:50.668Z,34.42
2022-12-09T22:24:20.703Z,34.13
2022-12-09T22:26:48.720Z,35.63
2022-12-09T22:29:18.328Z,40.17
2022-12-09T22:31:47.501Z,32.63
2022-12-09T22:34:17.181Z,33.85
2022-12-09T22:36:46.019Z,33.13
2022-12-09T22:39:15.601Z,34.47
2022-12-09T22:41:46.157Z,34.28
2022-12-09T22:44:29.652Z,35.72
2022-12-09T22:46:58.703Z,31.33
2022-12-09T22:49:26.918Z,31.90
2022-12-09T22:51:59.139Z,31.75
2022-12-09T22:54:28.893Z,32.42
2022-12-09T22:56:58.270Z,32.83
2022-12-09T22:59:26.510Z,30.83
2022-12-09T23:01:54.671Z,31.27
2022-12-09T23:04:24.834Z,35.15
2022-12-09T23:06:53.332Z,32.25
2022-12-09T23:09:25.546Z,30.80
2022-12-09T23:11:54.033Z,30.40
2022-12-09T23:14:23.500Z,33.13
2022-12-09T23:16:51.917Z,32.72
2022-12-09T23:19:20.215Z,39.00
2022-12-09T23:21:48.620Z,33.65
2022-12-09T23:24:24.316Z,41.03
2022-12-09T23:27:12.133Z,42.17
2022-12-09T23:29:41.790Z,37.95
2022-12-09T23:32:10.166Z,41.78
2022-12-09T23:34:38.469Z,34.05
2022-12-09T23:37:06.746Z,37.10
2022-12-09T23:39:34.795Z,38.80
2022-12-09T23:42:02.893Z,33.50
2022-12-09T23:44:31.137Z,32.60
2022-12-09T23:47:01.136Z,31.95
2022-12-09T23:49:29.761Z,28.85
2022-12-09T23:51:57.784Z,33.60
2022-12-09T23:54:26.137Z,33.25
2022-12-09T23:56:54.450Z,31.10
2022-12-09T23:59:24.132Z,32.35
